sensor_id;sensor_type;location;lat;lon;timestamp;P1;durP1;ratioP1;P2;durP2;ratioP2
19621;SDS011;9958;33.196;-97.114;2023-04-01T00:00:11;13.65;;;2.72;;
19621;SDS011;9958;33.196;-97.114;2023-04-01T00:02:40;10.18;;;2.33;;
19621;SDS011;9958;33.196;-97.114;2023-04-01T00:05:09;14.77;;;2.35;;
19621;SDS011;9958;33.196;-97.114;2023-04-01T00:07:38;14.52;;;2.20;;
19621;SDS011;9958;33.196;-97.114;2023-04-01T00:10:09;20.85;;;1.63;;
19621;SDS011;9958;33.196;-97.114;2023-04-01T00:12:38;15.43;;;2.17;;
19621;SDS011;9958;33.196;-97.114;2023-04-01T00:15:08;17.80;;;1.73;;
19621;SDS011;9958;33.196;-97.114;2023-04-01T00:17:38;15.82;;;2.03;;
19621;SDS011;9958;33.196;-97.114;2023-04-01T00:20:07;13.70;;;1.88;;
19621;SDS011;9958;33.196;-97.114;2023-04-01T00:22:36;15.25;;;2.20;;
19621;SDS011;9958;33.196;-97.114;2023-04-01T00:25:04;9.45;;;1.70;;
19621;SDS011;9958;33.196;-97.114;2023-04-01T00:27:35;10.40;;;1.40;;
19621;SDS011;9958;33.196;-97.114;2023-04-01T00:30:04;11.15;;;1.58;;
19621;SDS011;9958;33.196;-97.114;2023-04-01T00:32:33;19.48;;;2.00;;
19621;SDS011;9958;33.196;-97.114;2023-04-01T00:35:02;15.85;;;2.50;;
19621;SDS011;9958;33.196;-97.114;2023-04-01T00:37:31;16.73;;;1.90;;
19621;SDS011;9958;33.196;-97.114;2023-04-01T00:40:02;14.90;;;1.98;;
19621;SDS011;9958;33.196;-97.114;2023-04-01T00:42:32;12.02;;;1.80;;
19621;SDS011;9958;33.196;-97.114;2023-04-01T00:47:55;18.65;;;3.40;;
19621;SDS011;9958;33.196;-97.114;2023-04-01T00:50:26;18.20;;;2.13;;
19621;SDS011;9958;33.196;-97.114;2023-04-01T00:52:58;10.18;;;1.80;;
19621;SDS011;9958;33.196;-97.114;2023-04-01T00:55:27;16.17;;;1.92;;
19621;SDS011;9958;33.196;-97.114;2023-04-01T00:57:59;8.75;;;1.63;;
19621;SDS011;9958;33.196;-97.114;2023-04-01T01:00:31;13.63;;;1.60;;
19621;SDS011;9958;33.196;-97.114;2023-04-01T01:02:59;17.70;;;1.63;;
19621;SDS011;9958;33.196;-97.114;2023-04-01T01:05:31;11.40;;;1.88;;
19621;SDS011;9958;33.196;-97.114;2023-04-01T01:08:15;15.15;;;2.03;;
19621;SDS011;9958;33.196;-97.114;2023-04-01T01:10:49;14.32;;;2.88;;
19621;SDS011;9958;33.196;-97.114;2023-04-01T01:13:19;10.82;;;1.85;;
19621;SDS011;9958;33.196;-97.114;2023-04-01T01:15:56;13.88;;;1.85;;
19621;SDS011;9958;33.196;-97.114;2023-04-01T01:18:29;15.20;;;2.20;;
19621;SDS011;9958;33.196;-97.114;2023-04-01T01:24:07;17.17;;;2.05;;
19621;SDS011;9958;33.196;-97.114;2023-04-01T01:26:57;7.05;;;1.40;;
19621;SDS011;9958;33.196;-97.114;2023-04-01T01:29:42;12.10;;;2.03;;
19621;SDS011;9958;33.196;-97.114;2023-04-01T01:32:44;16.52;;;1.70;;
19621;SDS011;9958;33.196;-97.114;2023-04-01T01:35:38;18.35;;;2.10;;
19621;SDS011;9958;33.196;-97.114;2023-04-01T01:38:10;19.10;;;1.67;;
19621;SDS011;9958;33.196;-97.114;2023-04-01T01:40:41;17.77;;;2.05;;
19621;SDS011;9958;33.196;-97.114;2023-04-01T01:43:14;21.00;;;2.35;;
19621;SDS011;9958;33.196;-97.114;2023-04-01T01:45:47;24.65;;;2.70;;
19621;SDS011;9958;33.196;-97.114;2023-04-01T01:48:19;17.25;;;2.33;;
19621;SDS011;9958;33.196;-97.114;2023-04-01T01:50:48;17.48;;;2.92;;
19621;SDS011;9958;33.196;-97.114;2023-04-01T01:53:18;8.50;;;2.35;;
19621;SDS011;9958;33.196;-97.114;2023-04-01T01:55:47;22.67;;;3.35;;
19621;SDS011;9958;33.196;-97.114;2023-04-01T01:58:16;16.83;;;3.35;;
19621;SDS011;9958;33.196;-97.114;2023-04-01T02:00:48;14.43;;;2.45;;
19621;SDS011;9958;33.196;-97.114;2023-04-01T02:03:19;10.95;;;1.80;;
19621;SDS011;9958;33.196;-97.114;2023-04-01T02:05:52;11.93;;;2.00;;
19621;SDS011;9958;33.196;-97.114;2023-04-01T02:08:24;8.82;;;2.40;;
19621;SDS011;9958;33.196;-97.114;2023-04-01T02:10:57;16.40;;;3.47;;
19621;SDS011;9958;33.196;-97.114;2023-04-01T02:13:29;17.13;;;2.20;;
19621;SDS011;9958;33.196;-97.114;2023-04-01T02:16:02;11.35;;;2.83;;
19621;SDS011;9958;33.196;-97.114;2023-04-01T02:18:34;14.93;;;3.55;;
19621;SDS011;9958;33.196;-97.114;2023-04-01T02:21:05;23.90;;;2.25;;
19621;SDS011;9958;33.196;-97.114;2023-04-01T02:23:35;12.50;;;2.33;;
19621;SDS011;9958;33.196;-97.114;2023-04-01T02:26:05;17.02;;;4.15;;
19621;SDS011;9958;33.196;-97.114;2023-04-01T02:28:35;20.08;;;2.25;;
19621;SDS011;9958;33.196;-97.114;2023-04-01T02:31:06;9.77;;;2.60;;
19621;SDS011;9958;33.196;-97.114;2023-04-01T02:33:37;14.18;;;3.22;;
19621;SDS011;9958;33.196;-97.114;2023-04-01T02:36:07;12.35;;;2.55;;
19621;SDS011;9958;33.196;-97.114;2023-04-01T02:38:39;16.45;;;2.60;;
19621;SDS011;9958;33.196;-97.114;2023-04-01T02:41:10;17.77;;;2.40;;
19621;SDS011;9958;33.196;-97.114;2023-04-01T02:43:38;17.30;;;2.72;;
19621;SDS011;9958;33.196;-97.114;2023-04-01T02:46:07;15.38;;;2.47;;
19621;SDS011;9958;33.196;-97.114;2023-04-01T02:48:35;16.08;;;2.70;;
19621;SDS011;9958;33.196;-97.114;2023-04-01T02:51:04;20.15;;;2.78;;
19621;SDS011;9958;33.196;-97.114;2023-04-01T02:53:34;15.43;;;2.65;;
19621;SDS011;9958;33.196;-97.114;2023-04-01T02:56:02;17.98;;;2.78;;
19621;SDS011;9958;33.196;-97.114;2023-04-01T02:58:31;17.30;;;3.28;;
19621;SDS011;9958;33.196;-97.114;2023-04-01T03:00:59;12.85;;;2.50;;
19621;SDS011;9958;33.196;-97.114;2023-04-01T03:03:28;16.33;;;2.45;;
19621;SDS011;9958;33.196;-97.114;2023-04-01T03:05:56;10.93;;;1.95;;
19621;SDS011;9958;33.196;-97.114;2023-04-01T03:08:25;16.05;;;2.83;;
19621;SDS011;9958;33.196;-97.114;2023-04-01T03:10:55;21.17;;;2.10;;
19621;SDS011;9958;33.196;-97.114;2023-04-01T03:13:23;11.50;;;2.13;;
19621;SDS011;9958;33.196;-97.114;2023-04-01T03:15:53;16.65;;;2.35;;
19621;SDS011;9958;33.196;-97.114;2023-04-01T03:18:21;13.43;;;1.90;;
19621;SDS011;9958;33.196;-97.114;2023-04-01T03:20:49;23.45;;;2.80;;
19621;SDS011;9958;33.196;-97.114;2023-04-01T03:23:18;18.92;;;2.22;;
19621;SDS011;9958;33.196;-97.114;2023-04-01T03:25:46;16.05;;;2.50;;
19621;SDS011;9958;33.196;-97.114;2023-04-01T03:28:16;14.80;;;3.38;;
19621;SDS011;9958;33.196;-97.114;2023-04-01T03:30:45;14.43;;;2.25;;
19621;SDS011;9958;33.196;-97.114;2023-04-01T03:33:13;13.13;;;1.95;;
19621;SDS011;9958;33.196;-97.114;2023-04-01T03:35:41;9.50;;;2.03;;
19621;SDS011;9958;33.196;-97.114;2023-04-01T03:38:10;12.43;;;2.25;;
19621;SDS011;9958;33.196;-97.114;2023-04-01T03:40:41;17.08;;;2.55;;
19621;SDS011;9958;33.196;-97.114;2023-04-01T03:43:10;16.73;;;2.75;;
19621;SDS011;9958;33.196;-97.114;2023-04-01T03:45:44;15.00;;;1.95;;
19621;SDS011;9958;33.196;-97.114;2023-04-01T03:48:13;13.70;;;2.20;;
19621;SDS011;9958;33.196;-97.114;2023-04-01T03:50:42;9.85;;;2.03;;
19621;SDS011;9958;33.196;-97.114;2023-04-01T03:53:11;22.38;;;2.55;;
19621;SDS011;9958;33.196;-97.114;2023-04-01T03:55:39;13.85;;;2.25;;
19621;SDS011;9958;33.196;-97.114;2023-04-01T03:58:08;14.85;;;2.63;;
19621;SDS011;9958;33.196;-97.114;2023-04-01T04:00:36;16.13;;;2.50;;
19621;SDS011;9958;33.196;-97.114;2023-04-01T04:03:07;9.77;;;2.05;;
19621;SDS011;9958;33.196;-97.114;2023-04-01T04:05:35;12.63;;;2.20;;
19621;SDS011;9958;33.196;-97.114;2023-04-01T04:08:04;13.70;;;2.15;;
19621;SDS011;9958;33.196;-97.114;2023-04-01T04:10:32;17.27;;;2.15;;
19621;SDS011;9958;33.196;-97.114;2023-04-01T04:13:01;18.67;;;2.65;;
19621;SDS011;9958;33.196;-97.114;2023-04-01T04:15:29;22.80;;;1.75;;
19621;SDS011;9958;33.196;-97.114;2023-04-01T04:17:57;11.15;;;2.20;;
19621;SDS011;9958;33.196;-97.114;2023-04-01T04:20:27;21.08;;;2.30;;
19621;SDS011;9958;33.196;-97.114;2023-04-01T04:22:56;27.05;;;2.75;;
19621;SDS011;9958;33.196;-97.114;2023-04-01T04:25:24;11.73;;;2.63;;
19621;SDS011;9958;33.196;-97.114;2023-04-01T04:27:52;16.80;;;2.67;;
19621;SDS011;9958;33.196;-97.114;2023-04-01T04:30:21;19.38;;;2.63;;
19621;SDS011;9958;33.196;-97.114;2023-04-01T04:32:49;17.20;;;2.90;;
19621;SDS011;9958;33.196;-97.114;2023-04-01T04:35:17;15.48;;;2.03;;
19621;SDS011;9958;33.196;-97.114;2023-04-01T04:37:47;10.45;;;1.85;;
19621;SDS011;9958;33.196;-97.114;2023-04-01T04:40:16;14.45;;;2.33;;
19621;SDS011;9958;33.196;-97.114;2023-04-01T04:42:44;21.27;;;2.97;;
19621;SDS011;9958;33.196;-97.114;2023-04-01T04:45:13;14.35;;;2.80;;
19621;SDS011;9958;33.196;-97.114;2023-04-01T04:47:41;15.23;;;2.20;;
19621;SDS011;9958;33.196;-97.114;2023-04-01T04:50:10;19.00;;;2.53;;
19621;SDS011;9958;33.196;-97.114;2023-04-01T04:52:38;16.20;;;3.10;;
19621;SDS011;9958;33.196;-97.114;2023-04-01T04:55:08;15.25;;;1.75;;
19621;SDS011;9958;33.196;-97.114;2023-04-01T04:57:37;13.95;;;1.88;;
19621;SDS011;9958;33.196;-97.114;2023-04-01T05:00:06;7.63;;;1.80;;
19621;SDS011;9958;33.196;-97.114;2023-04-01T05:02:35;12.85;;;1.98;;
19621;SDS011;9958;33.196;-97.114;2023-04-01T05:05:04;13.88;;;2.53;;
19621;SDS011;9958;33.196;-97.114;2023-04-01T05:07:33;12.07;;;2.40;;
19621;SDS011;9958;33.196;-97.114;2023-04-01T05:10:02;14.02;;;1.90;;
19621;SDS011;9958;33.196;-97.114;2023-04-01T05:12:32;14.52;;;2.50;;
19621;SDS011;9958;33.196;-97.114;2023-04-01T05:15:03;13.77;;;2.33;;
19621;SDS011;9958;33.196;-97.114;2023-04-01T05:17:31;13.93;;;2.42;;
19621;SDS011;9958;33.196;-97.114;2023-04-01T05:20:00;14.40;;;2.15;;
19621;SDS011;9958;33.196;-97.114;2023-04-01T05:22:28;13.65;;;1.63;;
19621;SDS011;9958;33.196;-97.114;2023-04-01T05:24:57;13.43;;;2.05;;
19621;SDS011;9958;33.196;-97.114;2023-04-01T05:27:25;9.70;;;2.28;;
19621;SDS011;9958;33.196;-97.114;2023-04-01T05:29:55;12.93;;;2.80;;
19621;SDS011;9958;33.196;-97.114;2023-04-01T05:32:23;11.80;;;3.35;;
19621;SDS011;9958;33.196;-97.114;2023-04-01T05:34:52;15.15;;;2.72;;
19621;SDS011;9958;33.196;-97.114;2023-04-01T05:37:21;15.48;;;2.13;;
19621;SDS011;9958;33.196;-97.114;2023-04-01T05:39:49;9.05;;;1.63;;
19621;SDS011;9958;33.196;-97.114;2023-04-01T05:42:18;8.60;;;2.13;;
19621;SDS011;9958;33.196;-97.114;2023-04-01T05:44:46;10.65;;;2.22;;
19621;SDS011;9958;33.196;-97.114;2023-04-01T05:47:16;13.80;;;1.80;;
19621;SDS011;9958;33.196;-97.114;2023-04-01T05:49:44;12.93;;;2.55;;
19621;SDS011;9958;33.196;-97.114;2023-04-01T05:52:13;12.55;;;2.05;;
19621;SDS011;9958;33.196;-97.114;2023-04-01T05:54:41;13.48;;;2.05;;
19621;SDS011;9958;33.196;-97.114;2023-04-01T05:57:10;27.77;;;1.92;;
19621;SDS011;9958;33.196;-97.114;2023-04-01T05:59:38;9.40;;;1.92;;
19621;SDS011;9958;33.196;-97.114;2023-04-01T06:02:07;11.73;;;2.30;;
19621;SDS011;9958;33.196;-97.114;2023-04-01T06:04:38;15.02;;;2.28;;
19621;SDS011;9958;33.196;-97.114;2023-04-01T06:07:11;11.70;;;2.22;;
19621;SDS011;9958;33.196;-97.114;2023-04-01T06:09:40;14.00;;;1.83;;
19621;SDS011;9958;33.196;-97.114;2023-04-01T06:15:04;9.27;;;2.10;;
19621;SDS011;9958;33.196;-97.114;2023-04-01T06:17:51;12.88;;;2.33;;
19621;SDS011;9958;33.196;-97.114;2023-04-01T06:20:32;14.57;;;1.65;;
19621;SDS011;9958;33.196;-97.114;2023-04-01T06:26:18;9.90;;;1.48;;
19621;SDS011;9958;33.196;-97.114;2023-04-01T06:29:03;10.13;;;1.48;;
19621;SDS011;9958;33.196;-97.114;2023-04-01T06:31:58;13.20;;;1.90;;
19621;SDS011;9958;33.196;-97.114;2023-04-01T06:34:53;9.27;;;2.38;;
19621;SDS011;9958;33.196;-97.114;2023-04-01T06:43:41;14.93;;;2.20;;
19621;SDS011;9958;33.196;-97.114;2023-04-01T06:46:18;7.00;;;1.70;;
19621;SDS011;9958;33.196;-97.114;2023-04-01T06:49:02;14.65;;;1.98;;
19621;SDS011;9958;33.196;-97.114;2023-04-01T06:51:40;14.65;;;2.33;;
19621;SDS011;9958;33.196;-97.114;2023-04-01T06:54:16;15.50;;;2.22;;
19621;SDS011;9958;33.196;-97.114;2023-04-01T06:56:48;9.90;;;1.30;;
19621;SDS011;9958;33.196;-97.114;2023-04-01T06:59:24;11.85;;;1.83;;
19621;SDS011;9958;33.196;-97.114;2023-04-01T07:01:55;12.50;;;1.48;;
19621;SDS011;9958;33.196;-97.114;2023-04-01T07:04:26;8.02;;;1.70;;
19621;SDS011;9958;33.196;-97.114;2023-04-01T07:06:58;10.27;;;1.77;;
19621;SDS011;9958;33.196;-97.114;2023-04-01T07:09:31;15.20;;;2.35;;
19621;SDS011;9958;33.196;-97.114;2023-04-01T07:12:04;12.60;;;2.67;;
19621;SDS011;9958;33.196;-97.114;2023-04-01T07:14:39;11.82;;;1.83;;
19621;SDS011;9958;33.196;-97.114;2023-04-01T07:17:11;10.27;;;1.83;;
19621;SDS011;9958;33.196;-97.114;2023-04-01T07:19:43;13.32;;;2.03;;
19621;SDS011;9958;33.196;-97.114;2023-04-01T07:22:17;13.32;;;1.50;;
19621;SDS011;9958;33.196;-97.114;2023-04-01T07:24:55;9.25;;;1.63;;
19621;SDS011;9958;33.196;-97.114;2023-04-01T07:27:28;7.05;;;1.38;;
19621;SDS011;9958;33.196;-97.114;2023-04-01T07:29:57;5.57;;;1.33;;
19621;SDS011;9958;33.196;-97.114;2023-04-01T07:32:27;9.68;;;2.00;;
19621;SDS011;9958;33.196;-97.114;2023-04-01T07:35:07;10.10;;;1.92;;
19621;SDS011;9958;33.196;-97.114;2023-04-01T07:37:47;9.07;;;1.35;;
19621;SDS011;9958;33.196;-97.114;2023-04-01T07:40:30;12.60;;;1.55;;
19621;SDS011;9958;33.196;-97.114;2023-04-01T07:43:12;5.82;;;1.95;;
19621;SDS011;9958;33.196;-97.114;2023-04-01T07:45:53;9.30;;;1.73;;
19621;SDS011;9958;33.196;-97.114;2023-04-01T07:48:30;13.45;;;1.50;;
19621;SDS011;9958;33.196;-97.114;2023-04-01T07:51:06;12.88;;;2.30;;
19621;SDS011;9958;33.196;-97.114;2023-04-01T07:53:42;11.95;;;2.53;;
19621;SDS011;9958;33.196;-97.114;2023-04-01T07:56:19;11.98;;;1.92;;
19621;SDS011;9958;33.196;-97.114;2023-04-01T07:58:55;13.38;;;1.80;;
19621;SDS011;9958;33.196;-97.114;2023-04-01T08:01:30;8.15;;;1.67;;
19621;SDS011;9958;33.196;-97.114;2023-04-01T08:04:16;9.30;;;1.52;;
19621;SDS011;9958;33.196;-97.114;2023-04-01T08:06:53;12.23;;;1.77;;
19621;SDS011;9958;33.196;-97.114;2023-04-01T08:09:27;7.57;;;1.60;;
19621;SDS011;9958;33.196;-97.114;2023-04-01T08:12:07;17.35;;;2.33;;
19621;SDS011;9958;33.196;-97.114;2023-04-01T08:14:51;7.50;;;1.38;;
19621;SDS011;9958;33.196;-97.114;2023-04-01T08:17:28;9.23;;;1.77;;
19621;SDS011;9958;33.196;-97.114;2023-04-01T08:20:07;8.85;;;1.42;;
19621;SDS011;9958;33.196;-97.114;2023-04-01T08:22:45;6.88;;;1.33;;
19621;SDS011;9958;33.196;-97.114;2023-04-01T08:25:19;3.58;;;0.98;;
19621;SDS011;9958;33.196;-97.114;2023-04-01T08:27:53;9.50;;;1.60;;
19621;SDS011;9958;33.196;-97.114;2023-04-01T08:30:26;7.95;;;1.55;;
19621;SDS011;9958;33.196;-97.114;2023-04-01T08:33:02;7.65;;;1.65;;
19621;SDS011;9958;33.196;-97.114;2023-04-01T08:35:38;11.18;;;1.35;;
19621;SDS011;9958;33.196;-97.114;2023-04-01T08:38:13;15.70;;;1.83;;
19621;SDS011;9958;33.196;-97.114;2023-04-01T08:47:33;7.95;;;1.48;;
19621;SDS011;9958;33.196;-97.114;2023-04-01T08:53:24;8.90;;;1.50;;
19621;SDS011;9958;33.196;-97.114;2023-04-01T08:56:06;10.68;;;1.83;;
19621;SDS011;9958;33.196;-97.114;2023-04-01T09:04:41;9.43;;;2.22;;
19621;SDS011;9958;33.196;-97.114;2023-04-01T09:07:35;10.18;;;1.30;;
19621;SDS011;9958;33.196;-97.114;2023-04-01T09:16:23;5.60;;;1.60;;
19621;SDS011;9958;33.196;-97.114;2023-04-01T09:19:11;8.30;;;1.20;;
19621;SDS011;9958;33.196;-97.114;2023-04-01T09:24:54;9.38;;;1.40;;
19621;SDS011;9958;33.196;-97.114;2023-04-01T09:27:40;9.63;;;1.52;;
19621;SDS011;9958;33.196;-97.114;2023-04-01T09:30:31;9.30;;;1.05;;
19621;SDS011;9958;33.196;-97.114;2023-04-01T09:33:27;9.35;;;1.80;;
19621;SDS011;9958;33.196;-97.114;2023-04-01T09:36:20;6.05;;;0.90;;
19621;SDS011;9958;33.196;-97.114;2023-04-01T09:39:03;6.03;;;1.20;;
19621;SDS011;9958;33.196;-97.114;2023-04-01T09:41:55;9.77;;;1.77;;
19621;SDS011;9958;33.196;-97.114;2023-04-01T09:44:35;5.00;;;1.58;;
19621;SDS011;9958;33.196;-97.114;2023-04-01T09:47:09;7.93;;;1.52;;
19621;SDS011;9958;33.196;-97.114;2023-04-01T09:49:56;12.15;;;1.27;;
19621;SDS011;9958;33.196;-97.114;2023-04-01T09:52:42;8.60;;;1.52;;
19621;SDS011;9958;33.196;-97.114;2023-04-01T09:58:35;12.52;;;2.28;;
19621;SDS011;9958;33.196;-97.114;2023-04-01T10:01:34;7.68;;;1.40;;
19621;SDS011;9958;33.196;-97.114;2023-04-01T10:04:18;6.13;;;1.13;;
19621;SDS011;9958;33.196;-97.114;2023-04-01T10:16:50;5.60;;;1.25;;
19621;SDS011;9958;33.196;-97.114;2023-04-01T10:19:44;5.68;;;0.95;;
19621;SDS011;9958;33.196;-97.114;2023-04-01T10:22:46;3.95;;;1.05;;
19621;SDS011;9958;33.196;-97.114;2023-04-01T10:25:36;4.88;;;1.27;;
19621;SDS011;9958;33.196;-97.114;2023-04-01T10:28:35;5.78;;;0.65;;
19621;SDS011;9958;33.196;-97.114;2023-04-01T10:31:29;4.72;;;0.73;;
19621;SDS011;9958;33.196;-97.114;2023-04-01T10:34:42;6.70;;;1.20;;
19621;SDS011;9958;33.196;-97.114;2023-04-01T10:37:34;3.80;;;0.70;;
19621;SDS011;9958;33.196;-97.114;2023-04-01T10:46:49;3.85;;;1.08;;
19621;SDS011;9958;33.196;-97.114;2023-04-01T10:50:04;5.97;;;1.15;;
19621;SDS011;9958;33.196;-97.114;2023-04-01T10:53:06;6.65;;;1.00;;
19621;SDS011;9958;33.196;-97.114;2023-04-01T10:56:03;3.08;;;0.80;;
19621;SDS011;9958;33.196;-97.114;2023-04-01T11:08:22;4.25;;;1.02;;
19621;SDS011;9958;33.196;-97.114;2023-04-01T11:14:27;2.20;;;0.73;;
19621;SDS011;9958;33.196;-97.114;2023-04-01T11:17:42;5.60;;;1.08;;
19621;SDS011;9958;33.196;-97.114;2023-04-01T11:21:00;3.47;;;1.42;;
19621;SDS011;9958;33.196;-97.114;2023-04-01T11:23:50;5.70;;;1.10;;
19621;SDS011;9958;33.196;-97.114;2023-04-01T11:26:32;5.82;;;1.02;;
19621;SDS011;9958;33.196;-97.114;2023-04-01T11:29:06;8.02;;;1.25;;
19621;SDS011;9958;33.196;-97.114;2023-04-01T11:32:07;8.30;;;1.10;;
19621;SDS011;9958;33.196;-97.114;2023-04-01T11:34:50;5.90;;;1.42;;
19621;SDS011;9958;33.196;-97.114;2023-04-01T11:37:38;5.45;;;1.23;;
19621;SDS011;9958;33.196;-97.114;2023-04-01T11:40:17;8.77;;;1.10;;
19621;SDS011;9958;33.196;-97.114;2023-04-01T11:42:55;4.63;;;1.05;;
19621;SDS011;9958;33.196;-97.114;2023-04-01T11:45:35;3.90;;;0.88;;
19621;SDS011;9958;33.196;-97.114;2023-04-01T11:51:18;14.43;;;1.25;;
19621;SDS011;9958;33.196;-97.114;2023-04-01T11:54:12;4.90;;;0.90;;
19621;SDS011;9958;33.196;-97.114;2023-04-01T11:56:53;7.93;;;1.17;;
19621;SDS011;9958;33.196;-97.114;2023-04-01T12:02:25;2.33;;;0.73;;
19621;SDS011;9958;33.196;-97.114;2023-04-01T12:05:15;1.58;;;0.70;;
19621;SDS011;9958;33.196;-97.114;2023-04-01T12:08:08;6.30;;;1.50;;
19621;SDS011;9958;33.196;-97.114;2023-04-01T12:10:46;3.60;;;1.83;;
19621;SDS011;9958;33.196;-97.114;2023-04-01T12:13:31;6.47;;;1.35;;
19621;SDS011;9958;33.196;-97.114;2023-04-01T12:16:13;7.80;;;1.05;;
19621;SDS011;9958;33.196;-97.114;2023-04-01T12:18:53;2.17;;;1.27;;
19621;SDS011;9958;33.196;-97.114;2023-04-01T12:21:28;3.55;;;0.85;;
19621;SDS011;9958;33.196;-97.114;2023-04-01T12:24:05;1.92;;;0.80;;
19621;SDS011;9958;33.196;-97.114;2023-04-01T12:26:57;2.88;;;1.10;;
19621;SDS011;9958;33.196;-97.114;2023-04-01T12:32:43;6.20;;;1.13;;
19621;SDS011;9958;33.196;-97.114;2023-04-01T12:35:21;4.13;;;1.05;;
19621;SDS011;9958;33.196;-97.114;2023-04-01T12:37:55;6.13;;;1.05;;
19621;SDS011;9958;33.196;-97.114;2023-04-01T12:40:51;2.78;;;1.10;;
19621;SDS011;9958;33.196;-97.114;2023-04-01T12:46:35;5.93;;;0.70;;
19621;SDS011;9958;33.196;-97.114;2023-04-01T12:49:24;6.07;;;0.73;;
19621;SDS011;9958;33.196;-97.114;2023-04-01T12:52:09;2.33;;;0.98;;
19621;SDS011;9958;33.196;-97.114;2023-04-01T13:01:27;2.40;;;0.60;;
19621;SDS011;9958;33.196;-97.114;2023-04-01T13:04:25;7.72;;;0.98;;
19621;SDS011;9958;33.196;-97.114;2023-04-01T13:07:31;3.40;;;0.75;;
19621;SDS011;9958;33.196;-97.114;2023-04-01T13:10:09;2.80;;;0.88;;
19621;SDS011;9958;33.196;-97.114;2023-04-01T13:12:58;1.55;;;0.55;;
19621;SDS011;9958;33.196;-97.114;2023-04-01T13:15:43;3.13;;;0.93;;
19621;SDS011;9958;33.196;-97.114;2023-04-01T13:18:24;8.25;;;1.40;;
19621;SDS011;9958;33.196;-97.114;2023-04-01T13:21:01;1.77;;;1.13;;
19621;SDS011;9958;33.196;-97.114;2023-04-01T13:23:42;3.72;;;0.65;;
19621;SDS011;9958;33.196;-97.114;2023-04-01T13:26:24;7.40;;;0.70;;
19621;SDS011;9958;33.196;-97.114;2023-04-01T13:28:58;3.92;;;0.77;;
19621;SDS011;9958;33.196;-97.114;2023-04-01T13:31:47;5.43;;;0.80;;
19621;SDS011;9958;33.196;-97.114;2023-04-01T13:34:33;3.42;;;1.13;;
19621;SDS011;9958;33.196;-97.114;2023-04-01T13:37:22;2.95;;;0.85;;
19621;SDS011;9958;33.196;-97.114;2023-04-01T13:40:03;6.60;;;1.27;;
19621;SDS011;9958;33.196;-97.114;2023-04-01T13:42:50;3.30;;;0.68;;
19621;SDS011;9958;33.196;-97.114;2023-04-01T13:45:23;3.22;;;0.60;;
19621;SDS011;9958;33.196;-97.114;2023-04-01T13:50:55;4.60;;;1.10;;
19621;SDS011;9958;33.196;-97.114;2023-04-01T13:53:43;2.05;;;0.80;;
19621;SDS011;9958;33.196;-97.114;2023-04-01T13:56:41;5.20;;;0.70;;
19621;SDS011;9958;33.196;-97.114;2023-04-01T13:59:25;4.32;;;0.63;;
19621;SDS011;9958;33.196;-97.114;2023-04-01T14:02:14;5.97;;;0.90;;
19621;SDS011;9958;33.196;-97.114;2023-04-01T14:05:02;2.95;;;0.68;;
19621;SDS011;9958;33.196;-97.114;2023-04-01T14:07:49;1.65;;;0.70;;
19621;SDS011;9958;33.196;-97.114;2023-04-01T14:10:29;1.77;;;1.15;;
19621;SDS011;9958;33.196;-97.114;2023-04-01T14:13:04;2.15;;;0.80;;
19621;SDS011;9958;33.196;-97.114;2023-04-01T14:15:47;1.40;;;0.40;;
19621;SDS011;9958;33.196;-97.114;2023-04-01T14:18:33;2.45;;;0.77;;
19621;SDS011;9958;33.196;-97.114;2023-04-01T14:21:17;1.30;;;0.40;;
19621;SDS011;9958;33.196;-97.114;2023-04-01T14:23:58;1.70;;;0.95;;
19621;SDS011;9958;33.196;-97.114;2023-04-01T14:26:49;0.43;;;0.43;;
19621;SDS011;9958;33.196;-97.114;2023-04-01T14:29:29;1.60;;;0.55;;
19621;SDS011;9958;33.196;-97.114;2023-04-01T14:32:06;1.38;;;0.52;;
19621;SDS011;9958;33.196;-97.114;2023-04-01T14:34:48;4.85;;;1.13;;
19621;SDS011;9958;33.196;-97.114;2023-04-01T14:37:40;2.63;;;1.10;;
19621;SDS011;9958;33.196;-97.114;2023-04-01T14:40:32;2.35;;;0.60;;
19621;SDS011;9958;33.196;-97.114;2023-04-01T14:43:16;1.52;;;0.70;;
19621;SDS011;9958;33.196;-97.114;2023-04-01T14:46:14;0.75;;;0.57;;
19621;SDS011;9958;33.196;-97.114;2023-04-01T14:49:00;1.27;;;0.60;;
19621;SDS011;9958;33.196;-97.114;2023-04-01T14:51:32;2.00;;;0.52;;
19621;SDS011;9958;33.196;-97.114;2023-04-01T14:54:04;3.22;;;1.65;;
19621;SDS011;9958;33.196;-97.114;2023-04-01T14:56:44;1.20;;;0.70;;
19621;SDS011;9958;33.196;-97.114;2023-04-01T14:59:25;1.02;;;0.70;;
19621;SDS011;9958;33.196;-97.114;2023-04-01T15:01:57;4.45;;;1.13;;
19621;SDS011;9958;33.196;-97.114;2023-04-01T15:07:27;0.90;;;0.75;;
19621;SDS011;9958;33.196;-97.114;2023-04-01T15:10:28;3.92;;;0.88;;
19621;SDS011;9958;33.196;-97.114;2023-04-01T15:13:15;2.65;;;0.75;;
19621;SDS011;9958;33.196;-97.114;2023-04-01T15:15:58;1.25;;;0.68;;
19621;SDS011;9958;33.196;-97.114;2023-04-01T15:18:37;2.40;;;1.00;;
19621;SDS011;9958;33.196;-97.114;2023-04-01T15:21:18;3.40;;;0.80;;
19621;SDS011;9958;33.196;-97.114;2023-04-01T15:23:58;3.10;;;0.73;;
19621;SDS011;9958;33.196;-97.114;2023-04-01T15:29:47;1.45;;;0.85;;
19621;SDS011;9958;33.196;-97.114;2023-04-01T15:32:31;1.48;;;0.57;;
19621;SDS011;9958;33.196;-97.114;2023-04-01T15:35:16;0.75;;;0.57;;
19621;SDS011;9958;33.196;-97.114;2023-04-01T15:37:53;0.80;;;0.77;;
19621;SDS011;9958;33.196;-97.114;2023-04-01T15:40:27;2.05;;;0.80;;
19621;SDS011;9958;33.196;-97.114;2023-04-01T15:43:06;8.57;;;1.10;;
19621;SDS011;9958;33.196;-97.114;2023-04-01T15:45:51;0.68;;;0.60;;
19621;SDS011;9958;33.196;-97.114;2023-04-01T15:48:30;2.28;;;0.75;;
19621;SDS011;9958;33.196;-97.114;2023-04-01T15:51:09;2.53;;;0.90;;
19621;SDS011;9958;33.196;-97.114;2023-04-01T15:53:54;1.40;;;0.57;;
19621;SDS011;9958;33.196;-97.114;2023-04-01T15:56:42;2.67;;;0.60;;
19621;SDS011;9958;33.196;-97.114;2023-04-01T15:59:24;3.33;;;1.10;;
19621;SDS011;9958;33.196;-97.114;2023-04-01T16:02:15;0.50;;;0.50;;
19621;SDS011;9958;33.196;-97.114;2023-04-01T16:04:50;1.63;;;0.60;;
19621;SDS011;9958;33.196;-97.114;2023-04-01T16:10:23;1.35;;;0.77;;
19621;SDS011;9958;33.196;-97.114;2023-04-01T16:13:12;0.88;;;0.68;;
19621;SDS011;9958;33.196;-97.114;2023-04-01T16:15:54;1.25;;;1.10;;
19621;SDS011;9958;33.196;-97.114;2023-04-01T16:18:34;0.60;;;0.60;;
19621;SDS011;9958;33.196;-97.114;2023-04-01T16:21:14;1.00;;;0.70;;
19621;SDS011;9958;33.196;-97.114;2023-04-01T16:24:02;0.50;;;0.50;;
19621;SDS011;9958;33.196;-97.114;2023-04-01T16:26:44;4.93;;;1.00;;
19621;SDS011;9958;33.196;-97.114;2023-04-01T16:29:22;0.90;;;0.70;;
19621;SDS011;9958;33.196;-97.114;2023-04-01T16:32:01;1.33;;;0.47;;
19621;SDS011;9958;33.196;-97.114;2023-04-01T16:34:43;0.77;;;0.65;;
19621;SDS011;9958;33.196;-97.114;2023-04-01T16:37:21;2.38;;;0.75;;
19621;SDS011;9958;33.196;-97.114;2023-04-01T16:40:02;1.83;;;0.45;;
19621;SDS011;9958;33.196;-97.114;2023-04-01T16:42:44;1.95;;;0.70;;
19621;SDS011;9958;33.196;-97.114;2023-04-01T16:45:21;0.70;;;0.68;;
19621;SDS011;9958;33.196;-97.114;2023-04-01T16:48:01;0.52;;;0.52;;
19621;SDS011;9958;33.196;-97.114;2023-04-01T16:50:51;0.75;;;0.60;;
19621;SDS011;9958;33.196;-97.114;2023-04-01T16:53:25;1.60;;;0.85;;
19621;SDS011;9958;33.196;-97.114;2023-04-01T16:56:07;0.60;;;0.60;;
19621;SDS011;9958;33.196;-97.114;2023-04-01T16:58:40;1.13;;;1.02;;
19621;SDS011;9958;33.196;-97.114;2023-04-01T17:01:17;1.83;;;0.60;;
19621;SDS011;9958;33.196;-97.114;2023-04-01T17:03:50;1.20;;;0.70;;
19621;SDS011;9958;33.196;-97.114;2023-04-01T17:06:28;1.80;;;0.60;;
19621;SDS011;9958;33.196;-97.114;2023-04-01T17:11:55;2.58;;;0.70;;
19621;SDS011;9958;33.196;-97.114;2023-04-01T17:14:29;1.13;;;0.73;;
19621;SDS011;9958;33.196;-97.114;2023-04-01T17:17:14;0.70;;;0.70;;